Time;durP1;ratioP1;P1;durP2;ratioP2;P2;SDS_P1;SDS_P2;PMS_P1;PMS_P2;Temp;Humidity;BMP_temperature;BMP_pressure;BME280_temperature;BME280_humidity;BME280_pressure;Samples;Min_cycle;Max_cycle;Signal;HPM_P1;HPM_P2
2022/07/11 00:00:09;;;;;;;1.85;0.98;;;;;;;;;;5086214;28;20020;-39
2022/07/11 00:02:35;;;;;;;1.70;1.00;;;;;;;;;;5085089;27;20040;-39
2022/07/11 00:05:04;;;;;;;1.30;1.20;;;;;;;;;;5089130;28;20024;-38
2022/07/11 00:07:30;;;;;;;1.30;1.10;;;;;;;;;;5081122;28;20035;-39
2022/07/11 00:09:56;;;;;;;1.00;1.00;;;;;;;;;;5084372;28;20052;-36
2022/07/11 00:12:25;;;;;;;1.10;1.10;;;;;;;;;;5082276;28;20451;-38
2022/07/11 00:14:51;;;;;;;1.80;1.20;;;;;;;;;;5119253;27;20032;-36
2022/07/11 00:17:17;;;;;;;1.05;1.05;;;;;;;;;;5088099;28;20467;-38
2022/07/11 00:19:43;;;;;;;1.00;1.00;;;;;;;;;;5083048;28;20054;-37
2022/07/11 00:22:09;;;;;;;0.98;0.95;;;;;;;;;;5079580;28;20033;-38
2022/07/11 00:24:35;;;;;;;1.25;1.15;;;;;;;;;;5084924;28;20024;-39
2022/07/11 00:27:01;;;;;;;1.45;1.10;;;;;;;;;;5087877;28;20053;-35
2022/07/11 00:29:28;;;;;;;1.20;1.20;;;;;;;;;;5086809;28;20661;-37
2022/07/11 00:31:55;;;;;;;2.10;1.00;;;;;;;;;;5082966;28;20039;-37
2022/07/11 00:34:21;;;;;;;1.52;1.05;;;;;;;;;;5082828;28;20462;-36
2022/07/11 00:36:47;;;;;;;1.10;1.10;;;;;;;;;;5088182;28;20039;-35
2022/07/11 00:39:13;;;;;;;1.20;1.10;;;;;;;;;;5085240;28;20465;-38
2022/07/11 00:41:39;;;;;;;1.10;1.10;;;;;;;;;;5080812;28;20111;-39
2022/07/11 00:44:05;;;;;;;1.30;1.20;;;;;;;;;;5085881;28;20039;-39
2022/07/11 00:46:31;;;;;;;1.20;1.20;;;;;;;;;;5084056;28;20063;-39
2022/07/11 00:48:58;;;;;;;1.05;1.05;;;;;;;;;;5082997;28;20415;-37
2022/07/11 00:51:25;;;;;;;1.00;1.00;;;;;;;;;;5083855;28;20099;-38
2022/07/11 00:53:52;;;;;;;1.77;1.20;;;;;;;;;;5085831;28;20028;-39
2022/07/11 00:56:20;;;;;;;3.70;1.30;;;;;;;;;;5082550;28;20386;-39
2022/07/11 00:58:47;;;;;;;1.30;1.20;;;;;;;;;;5085079;28;20028;-39
2022/07/11 01:01:13;;;;;;;1.50;1.40;;;;;;;;;;5114601;27;20032;-37
2022/07/11 01:03:39;;;;;;;1.83;1.20;;;;;;;;;;5084870;28;20136;-37
2022/07/11 01:06:06;;;;;;;1.50;1.20;;;;;;;;;;5087766;28;20469;-39
2022/07/11 01:08:32;;;;;;;1.25;1.00;;;;;;;;;;5087752;28;20024;-36
2022/07/11 01:11:05;;;;;;;1.20;1.20;;;;;;;;;;5086720;28;20024;-38
2022/07/11 01:13:31;;;;;;;3.28;1.20;;;;;;;;;;5085642;28;20116;-38
2022/07/11 01:16:13;;;;;;;1.17;1.17;;;;;;;;;;5086172;28;20039;-38
2022/07/11 01:18:40;;;;;;;1.67;1.45;;;;;;;;;;5077220;28;20039;-38
2022/07/11 01:21:10;;;;;;;1.52;1.42;;;;;;;;;;5085551;28;20080;-39
2022/07/11 01:23:36;;;;;;;1.23;1.13;;;;;;;;;;5087241;28;20032;-35
2022/07/11 01:26:02;;;;;;;1.33;1.23;;;;;;;;;;5086450;28;20035;-36
2022/07/11 01:28:28;;;;;;;1.38;1.33;;;;;;;;;;5086995;28;20536;-38
2022/07/11 01:30:54;;;;;;;1.20;1.20;;;;;;;;;;5079860;27;20039;-38
2022/07/11 01:33:20;;;;;;;1.70;1.35;;;;;;;;;;5083548;28;20089;-38
2022/07/11 01:35:46;;;;;;;1.60;1.40;;;;;;;;;;5084609;28;20038;-36
2022/07/11 01:38:12;;;;;;;1.52;1.42;;;;;;;;;;5085277;28;20043;-38
2022/07/11 01:40:37;;;;;;;2.00;1.30;;;;;;;;;;5083529;28;20028;-39
2022/07/11 01:43:03;;;;;;;1.10;1.10;;;;;;;;;;5085218;28;20042;-36
2022/07/11 01:45:29;;;;;;;1.23;1.20;;;;;;;;;;5084521;28;20393;-35
2022/07/11 01:47:55;;;;;;;1.40;1.30;;;;;;;;;;5079681;28;20027;-36
2022/07/11 01:50:21;;;;;;;2.25;1.23;;;;;;;;;;5085096;28;20024;-39
2022/07/11 01:52:47;;;;;;;1.50;1.40;;;;;;;;;;5087499;28;20039;-39
2022/07/11 01:55:13;;;;;;;2.65;1.50;;;;;;;;;;5082137;28;20025;-35
2022/07/11 01:57:40;;;;;;;1.88;1.20;;;;;;;;;;5080973;28;20081;-35
2022/07/11 02:00:09;;;;;;;2.22;1.58;;;;;;;;;;5082575;28;20040;-39
2022/07/11 02:02:35;;;;;;;1.40;1.30;;;;;;;;;;5082524;27;20048;-36
2022/07/11 02:05:01;;;;;;;1.23;1.02;;;;;;;;;;5083503;28;20032;-39
2022/07/11 02:10:12;;;;;;;2.08;1.30;;;;;;;;;;5077896;28;20397;-39
2022/07/11 02:12:38;;;;;;;1.75;1.27;;;;;;;;;;5086519;28;20028;-39
2022/07/11 02:15:04;;;;;;;2.25;1.55;;;;;;;;;;5083708;28;20028;-38
2022/07/11 02:17:30;;;;;;;1.50;1.40;;;;;;;;;;5080792;28;20035;-36
2022/07/11 02:19:56;;;;;;;1.40;1.30;;;;;;;;;;5085622;28;20032;-39
2022/07/11 02:22:22;;;;;;;3.55;1.50;;;;;;;;;;5079194;28;20803;-37
2022/07/11 02:24:48;;;;;;;1.40;1.30;;;;;;;;;;5086530;28;20039;-39
2022/07/11 02:27:14;;;;;;;1.40;1.30;;;;;;;;;;5085570;28;20020;-39
2022/07/11 02:29:40;;;;;;;1.38;1.20;;;;;;;;;;5086406;28;20024;-39
2022/07/11 02:32:06;;;;;;;1.55;1.13;;;;;;;;;;5084341;27;20057;-38
2022/07/11 02:34:32;;;;;;;1.15;1.02;;;;;;;;;;5086663;28;20563;-38
2022/07/11 02:36:58;;;;;;;4.53;1.30;;;;;;;;;;5083708;28;20028;-36
2022/07/11 02:39:24;;;;;;;1.35;1.20;;;;;;;;;;5086579;28;20033;-39
2022/07/11 02:41:50;;;;;;;2.15;1.30;;;;;;;;;;5087577;28;20496;-38
2022/07/11 02:44:16;;;;;;;1.20;1.20;;;;;;;;;;5084869;28;20032;-38
2022/07/11 02:46:42;;;;;;;1.30;1.23;;;;;;;;;;5085810;28;20554;-39
2022/07/11 02:49:08;;;;;;;1.70;1.60;;;;;;;;;;5086082;28;20115;-39
2022/07/11 02:51:34;;;;;;;1.20;1.13;;;;;;;;;;5085712;28;20036;-38
2022/07/11 02:54:00;;;;;;;1.27;1.25;;;;;;;;;;5086294;28;20481;-39
2022/07/11 02:56:27;;;;;;;1.55;1.45;;;;;;;;;;5085208;28;20051;-37
2022/07/11 02:58:53;;;;;;;1.30;1.20;;;;;;;;;;5085415;28;20115;-37
2022/07/11 03:01:19;;;;;;;1.52;1.30;;;;;;;;;;5083523;27;20074;-39
2022/07/11 03:03:45;;;;;;;1.50;1.40;;;;;;;;;;5083960;28;20048;-36
2022/07/11 03:06:11;;;;;;;1.38;1.33;;;;;;;;;;5083481;28;20027;-38
2022/07/11 03:08:39;;;;;;;1.30;1.30;;;;;;;;;;5081616;28;20108;-36
2022/07/11 03:11:05;;;;;;;1.50;1.40;;;;;;;;;;5089409;28;20094;-39
2022/07/11 03:13:32;;;;;;;1.77;1.40;;;;;;;;;;5084818;28;20144;-39
2022/07/11 03:15:58;;;;;;;1.48;1.30;;;;;;;;;;5089419;28;20036;-35
2022/07/11 03:18:24;;;;;;;1.20;1.20;;;;;;;;;;5082436;28;20421;-39
2022/07/11 03:20:50;;;;;;;2.00;1.60;;;;;;;;;;5085985;28;20067;-38
2022/07/11 03:23:16;;;;;;;1.95;1.60;;;;;;;;;;5085795;28;20026;-39
2022/07/11 03:25:42;;;;;;;1.40;1.30;;;;;;;;;;5083835;28;20028;-39
2022/07/11 03:28:08;;;;;;;1.42;1.33;;;;;;;;;;5089793;28;20027;-36
2022/07/11 03:30:34;;;;;;;1.38;1.27;;;;;;;;;;5088306;27;20681;-38
2022/07/11 03:33:00;;;;;;;1.45;1.38;;;;;;;;;;5087619;28;20028;-37
2022/07/11 03:35:41;;;;;;;1.92;1.50;;;;;;;;;;5079801;28;20029;-37
2022/07/11 03:38:08;;;;;;;2.05;1.52;;;;;;;;;;5085603;28;20489;-36
2022/07/11 03:40:34;;;;;;;1.52;1.42;;;;;;;;;;5082135;28;20025;-36
2022/07/11 03:43:00;;;;;;;2.85;1.30;;;;;;;;;;5088118;28;20115;-39
2022/07/11 03:45:26;;;;;;;1.50;1.40;;;;;;;;;;5086887;28;20448;-39
2022/07/11 03:47:52;;;;;;;1.67;1.58;;;;;;;;;;5086148;28;20024;-38
2022/07/11 03:50:18;;;;;;;3.88;1.67;;;;;;;;;;5078965;28;20031;-38
2022/07/11 03:52:44;;;;;;;2.63;1.80;;;;;;;;;;5086871;28;20036;-37
2022/07/11 03:55:10;;;;;;;1.63;1.40;;;;;;;;;;5087362;28;20104;-39
2022/07/11 03:57:39;;;;;;;1.48;1.38;;;;;;;;;;5088482;28;20488;-38
2022/07/11 04:00:07;;;;;;;1.77;1.48;;;;;;;;;;5083742;28;20039;-38
2022/07/11 04:02:33;;;;;;;1.75;1.65;;;;;;;;;;5084159;27;20040;-38
2022/07/11 04:04:59;;;;;;;1.50;1.40;;;;;;;;;;5083063;28;20485;-36
2022/07/11 04:07:28;;;;;;;1.67;1.58;;;;;;;;;;5088210;28;20039;-38
2022/07/11 04:09:54;;;;;;;2.88;1.73;;;;;;;;;;5084094;28;20013;-38
2022/07/11 04:12:20;;;;;;;2.75;1.48;;;;;;;;;;5083134;28;20081;-38
2022/07/11 04:14:46;;;;;;;3.42;1.80;;;;;;;;;;5083650;28;20439;-39
2022/07/11 04:17:12;;;;;;;2.05;1.63;;;;;;;;;;5087027;28;20060;-39
2022/07/11 04:19:38;;;;;;;1.40;1.30;;;;;;;;;;5083174;28;20020;-39
2022/07/11 04:22:04;;;;;;;1.85;1.75;;;;;;;;;;5083446;28;20032;-39
2022/07/11 04:24:30;;;;;;;1.70;1.60;;;;;;;;;;5081836;28;20473;-39
2022/07/11 04:26:57;;;;;;;1.50;1.40;;;;;;;;;;5083156;28;20512;-39
2022/07/11 04:29:26;;;;;;;2.80;1.65;;;;;;;;;;5082336;28;20043;-38
2022/07/11 04:31:52;;;;;;;2.05;1.63;;;;;;;;;;5078362;28;20392;-38
2022/07/11 04:34:18;;;;;;;2.10;1.70;;;;;;;;;;5082915;28;20061;-39
2022/07/11 04:36:44;;;;;;;2.20;2.00;;;;;;;;;;5082452;28;20481;-39
2022/07/11 04:39:11;;;;;;;2.80;1.42;;;;;;;;;;5088617;28;20024;-39
2022/07/11 04:41:37;;;;;;;2.53;1.60;;;;;;;;;;5086558;28;21020;-39
2022/07/11 04:44:03;;;;;;;1.85;1.75;;;;;;;;;;5086932;28;20074;-39
2022/07/11 04:46:29;;;;;;;2.08;1.98;;;;;;;;;;5087879;28;20017;-39
2022/07/11 04:48:56;;;;;;;1.77;1.67;;;;;;;;;;5086346;28;20080;-38
2022/07/11 04:51:23;;;;;;;1.50;1.40;;;;;;;;;;5087902;28;20020;-36
2022/07/11 04:53:49;;;;;;;1.70;1.60;;;;;;;;;;5085340;28;20170;-38
2022/07/11 04:56:15;;;;;;;2.58;1.70;;;;;;;;;;5087936;28;20106;-39
2022/07/11 04:58:41;;;;;;;1.83;1.65;;;;;;;;;;5086483;28;20035;-38
2022/07/11 05:01:07;;;;;;;1.83;1.67;;;;;;;;;;5087185;27;20485;-36
2022/07/11 05:03:34;;;;;;;1.70;1.60;;;;;;;;;;5086648;28;20048;-37
2022/07/11 05:06:00;;;;;;;4.35;1.88;;;;;;;;;;5080073;28;20024;-37
2022/07/11 05:08:26;;;;;;;2.13;2.03;;;;;;;;;;5088174;28;20020;-36
2022/07/11 05:10:52;;;;;;;4.53;1.80;;;;;;;;;;5074228;28;20460;-39
2022/07/11 05:13:18;;;;;;;5.65;2.28;;;;;;;;;;5087573;28;20032;-37
2022/07/11 05:15:44;;;;;;;2.28;2.05;;;;;;;;;;5086797;28;20504;-38
2022/07/11 05:18:10;;;;;;;1.80;1.70;;;;;;;;;;5080396;28;20032;-38
2022/07/11 05:20:36;;;;;;;3.38;2.03;;;;;;;;;;5081294;28;20508;-37
2022/07/11 05:23:02;;;;;;;4.22;1.98;;;;;;;;;;5085810;28;20068;-39
2022/07/11 05:25:28;;;;;;;4.95;2.55;;;;;;;;;;5084464;28;20710;-35
2022/07/11 05:27:54;;;;;;;3.47;1.60;;;;;;;;;;5085740;28;20032;-35
2022/07/11 05:30:20;;;;;;;2.40;2.20;;;;;;;;;;5080003;27;20024;-38
2022/07/11 05:32:46;;;;;;;3.10;2.38;;;;;;;;;;5088101;28;20115;-38
2022/07/11 05:35:12;;;;;;;4.50;2.03;;;;;;;;;;5074079;28;20074;-38
2022/07/11 05:37:38;;;;;;;2.38;2.17;;;;;;;;;;5113774;27;20472;-38
2022/07/11 05:40:05;;;;;;;2.80;1.98;;;;;;;;;;5085037;28;20507;-38
2022/07/11 05:42:31;;;;;;;4.63;2.40;;;;;;;;;;5085413;28;20043;-37
2022/07/11 05:44:57;;;;;;;4.70;2.35;;;;;;;;;;5088172;28;20024;-37
2022/07/11 05:47:23;;;;;;;2.25;2.05;;;;;;;;;;5088723;28;20031;-38
2022/07/11 05:49:49;;;;;;;2.20;2.10;;;;;;;;;;5087726;28;20084;-38
2022/07/11 05:52:15;;;;;;;2.28;2.00;;;;;;;;;;5085006;28;20039;-38
2022/07/11 05:54:42;;;;;;;4.10;2.25;;;;;;;;;;5076475;28;20017;-38
2022/07/11 05:57:07;;;;;;;2.03;1.92;;;;;;;;;;5085656;28;20057;-38
2022/07/11 05:59:35;;;;;;;2.17;2.00;;;;;;;;;;4927406;28;20026;-33
2022/07/11 06:02:02;;;;;;;2.83;2.20;;;;;;;;;;5076581;27;20509;-34
2022/07/11 06:04:28;;;;;;;6.72;2.60;;;;;;;;;;5086520;28;20028;-33
2022/07/11 06:06:54;;;;;;;2.53;2.22;;;;;;;;;;5088056;28;20027;-32
2022/07/11 06:09:20;;;;;;;3.90;2.25;;;;;;;;;;5073083;28;20056;-33
2022/07/11 06:11:46;;;;;;;2.50;2.30;;;;;;;;;;5076538;28;20394;-33
2022/07/11 06:14:12;;;;;;;2.47;2.28;;;;;;;;;;5083787;28;20480;-33
2022/07/11 06:16:38;;;;;;;2.72;2.35;;;;;;;;;;5083953;28;20036;-36
2022/07/11 06:19:04;;;;;;;2.40;2.20;;;;;;;;;;5085217;28;20076;-33
2022/07/11 06:21:30;;;;;;;3.17;2.22;;;;;;;;;;5078886;28;20044;-36
2022/07/11 06:23:56;;;;;;;4.28;2.40;;;;;;;;;;5081253;28;20029;-33
2022/07/11 06:26:22;;;;;;;3.13;2.22;;;;;;;;;;5084322;28;20043;-33
2022/07/11 06:28:48;;;;;;;2.40;2.20;;;;;;;;;;5081025;28;20031;-33
2022/07/11 06:31:16;;;;;;;3.30;2.30;;;;;;;;;;5078686;28;20024;-33
2022/07/11 06:33:42;;;;;;;5.40;2.28;;;;;;;;;;5086850;28;20024;-34
2022/07/11 06:36:08;;;;;;;2.15;1.95;;;;;;;;;;5079422;28;20579;-33
2022/07/11 06:38:34;;;;;;;2.97;2.20;;;;;;;;;;5086574;28;20485;-33
2022/07/11 06:41:00;;;;;;;2.50;2.05;;;;;;;;;;5088228;28;20112;-33
2022/07/11 06:43:26;;;;;;;4.80;2.47;;;;;;;;;;5077981;28;20025;-33
2022/07/11 06:45:52;;;;;;;2.95;2.17;;;;;;;;;;5085356;28;20055;-33
2022/07/11 06:48:20;;;;;;;2.20;2.03;;;;;;;;;;5087489;28;20376;-33
2022/07/11 06:50:46;;;;;;;2.40;2.20;;;;;;;;;;5086980;28;20129;-33
2022/07/11 06:53:12;;;;;;;2.95;2.10;;;;;;;;;;5084187;28;20066;-32
2022/07/11 06:55:38;;;;;;;3.08;2.28;;;;;;;;;;5090438;28;20027;-33
2022/07/11 06:58:05;;;;;;;2.50;2.20;;;;;;;;;;5090999;28;20043;-33
2022/07/11 07:00:31;;;;;;;2.67;1.98;;;;;;;;;;5090029;27;20074;-33
2022/07/11 07:02:57;;;;;;;2.10;2.00;;;;;;;;;;5089922;28;20044;-32
2022/07/11 07:05:24;;;;;;;2.38;1.90;;;;;;;;;;5090838;28;20686;-33
2022/07/11 07:07:51;;;;;;;4.18;2.10;;;;;;;;;;5088388;28;20034;-33
2022/07/11 07:10:17;;;;;;;5.03;2.55;;;;;;;;;;5090414;28;20710;-34
2022/07/11 07:12:44;;;;;;;2.13;1.92;;;;;;;;;;5087824;28;20060;-35
2022/07/11 07:15:10;;;;;;;2.65;1.90;;;;;;;;;;5087052;28;20032;-34
2022/07/11 07:17:36;;;;;;;2.05;1.75;;;;;;;;;;5085574;28;20453;-33
2022/07/11 07:20:03;;;;;;;2.53;1.65;;;;;;;;;;5087553;28;20020;-35
2022/07/11 07:22:30;;;;;;;2.15;1.90;;;;;;;;;;5088438;28;20496;-33
2022/07/11 07:24:56;;;;;;;2.33;2.13;;;;;;;;;;5082455;28;20603;-32
2022/07/11 07:27:22;;;;;;;1.95;1.80;;;;;;;;;;5087265;28;20115;-32
2022/07/11 07:29:48;;;;;;;3.13;1.77;;;;;;;;;;5087277;28;20699;-33
2022/07/11 07:32:14;;;;;;;2.20;2.00;;;;;;;;;;5084458;27;20098;-33
2022/07/11 07:34:40;;;;;;;3.38;2.10;;;;;;;;;;5089767;28;20028;-35
2022/07/11 07:37:06;;;;;;;1.83;1.73;;;;;;;;;;5086275;28;20054;-33
2022/07/11 07:39:32;;;;;;;3.63;1.80;;;;;;;;;;5086328;28;20115;-34
2022/07/11 07:41:58;;;;;;;2.67;1.80;;;;;;;;;;5079060;28;20103;-36
2022/07/11 07:44:24;;;;;;;2.10;2.00;;;;;;;;;;5087802;28;20032;-35
2022/07/11 07:46:50;;;;;;;1.73;1.60;;;;;;;;;;5088601;28;20038;-33
2022/07/11 07:49:16;;;;;;;4.07;2.05;;;;;;;;;;5083170;28;21711;-33
2022/07/11 07:51:42;;;;;;;2.30;1.60;;;;;;;;;;5087782;28;20081;-34
2022/07/11 07:54:08;;;;;;;3.22;1.63;;;;;;;;;;5081607;28;20025;-33
2022/07/11 07:56:34;;;;;;;1.67;1.58;;;;;;;;;;5088132;28;20034;-33
2022/07/11 07:59:00;;;;;;;2.42;1.70;;;;;;;;;;5088765;28;20093;-32
2022/07/11 08:01:35;;;;;;;2.92;1.45;;;;;;;;;;5081127;27;20450;-33
2022/07/11 08:04:05;;;;;;;3.50;1.98;;;;;;;;;;5085201;28;20484;-33
2022/07/11 08:06:31;;;;;;;2.38;1.60;;;;;;;;;;5084615;28;20350;-33
2022/07/11 08:08:57;;;;;;;1.60;1.50;;;;;;;;;;5086083;28;20750;-35
2022/07/11 08:11:24;;;;;;;1.42;1.20;;;;;;;;;;5088330;28;20051;-33
2022/07/11 08:13:50;;;;;;;1.95;1.30;;;;;;;;;;5086032;28;20508;-36
2022/07/11 08:16:16;;;;;;;5.00;1.33;;;;;;;;;;5079545;28;20393;-32
2022/07/11 08:18:42;;;;;;;1.48;1.38;;;;;;;;;;5087669;28;20081;-33
2022/07/11 08:21:09;;;;;;;1.65;1.55;;;;;;;;;;5081583;28;20378;-36
2022/07/11 08:23:35;;;;;;;1.25;1.20;;;;;;;;;;5086156;28;20532;-33
2022/07/11 08:26:01;;;;;;;2.63;1.67;;;;;;;;;;5082377;28;20100;-33
2022/07/11 08:28:27;;;;;;;3.15;1.50;;;;;;;;;;5086956;28;20129;-33
2022/07/11 08:30:53;;;;;;;1.73;1.50;;;;;;;;;;5087345;28;20036;-33
2022/07/11 08:33:19;;;;;;;1.88;1.48;;;;;;;;;;5082167;28;20111;-32
2022/07/11 08:35:45;;;;;;;1.40;1.30;;;;;;;;;;5084208;28;20099;-33
2022/07/11 08:38:11;;;;;;;5.43;1.52;;;;;;;;;;5088838;28;20050;-33
2022/07/11 08:40:38;;;;;;;1.42;1.33;;;;;;;;;;5088014;28;20101;-33
2022/07/11 08:43:05;;;;;;;3.83;1.70;;;;;;;;;;5088908;28;20092;-32
2022/07/11 08:45:32;;;;;;;2.75;1.52;;;;;;;;;;5081647;28;20024;-33
2022/07/11 08:47:58;;;;;;;2.28;1.50;;;;;;;;;;5083861;28;20047;-32
2022/07/11 08:50:26;;;;;;;1.50;1.40;;;;;;;;;;5084832;28;20024;-33
2022/07/11 08:52:54;;;;;;;1.75;1.30;;;;;;;;;;5087298;28;20020;-33
2022/07/11 08:55:21;;;;;;;2.63;1.40;;;;;;;;;;5084880;28;20101;-33
2022/07/11 08:57:47;;;;;;;2.55;1.20;;;;;;;;;;5085725;28;20048;-34
2022/07/11 09:00:13;;;;;;;1.30;1.20;;;;;;;;;;5087114;28;20024;-33
2022/07/11 09:02:41;;;;;;;1.30;1.20;;;;;;;;;;5085289;27;20048;-32
2022/07/11 09:05:07;;;;;;;2.45;1.20;;;;;;;;;;5087312;28;20069;-33
2022/07/11 09:07:34;;;;;;;1.60;1.33;;;;;;;;;;5082446;28;20031;-35
2022/07/11 09:10:00;;;;;;;1.60;1.00;;;;;;;;;;5082593;28;20036;-33
2022/07/11 09:12:26;;;;;;;1.00;0.68;;;;;;;;;;5077978;28;20032;-33
2022/07/11 09:14:52;;;;;;;0.98;0.98;;;;;;;;;;5082874;28;20477;-32
2022/07/11 09:17:26;;;;;;;1.15;1.00;;;;;;;;;;5085825;28;20054;-33
2022/07/11 09:19:52;;;;;;;1.38;0.93;;;;;;;;;;5086100;28;20107;-33
2022/07/11 09:27:54;;;;;;;1.83;0.90;;;;;;;;;;5086530;28;20513;-32
2022/07/11 09:30:39;;;;;;;0.60;0.60;;;;;;;;;;5078824;28;20052;-33
2022/07/11 09:33:06;;;;;;;0.50;0.50;;;;;;;;;;5083690;28;20028;-32
2022/07/11 09:35:35;;;;;;;0.73;0.50;;;;;;;;;;5085485;28;20107;-32
2022/07/11 09:38:05;;;;;;;0.95;0.70;;;;;;;;;;5078525;28;20147;-33
2022/07/11 09:40:31;;;;;;;0.43;0.43;;;;;;;;;;5073870;28;20025;-32
2022/07/11 09:42:58;;;;;;;0.40;0.40;;;;;;;;;;5082327;28;20027;-32
2022/07/11 09:45:25;;;;;;;0.45;0.45;;;;;;;;;;5082652;28;20054;-32
2022/07/11 09:47:52;;;;;;;1.63;1.10;;;;;;;;;;5080200;28;20039;-33
2022/07/11 09:50:19;;;;;;;1.20;0.70;;;;;;;;;;5084017;28;20029;-33
2022/07/11 09:52:58;;;;;;;1.85;0.80;;;;;;;;;;5087180;28;20158;-33
2022/07/11 09:55:25;;;;;;;0.70;0.70;;;;;;;;;;5084519;28;20481;-34
2022/07/11 09:57:51;;;;;;;0.75;0.75;;;;;;;;;;5079683;28;20479;-33
2022/07/11 10:00:17;;;;;;;1.05;0.60;;;;;;;;;;5082162;28;20024;-32
2022/07/11 10:02:44;;;;;;;0.73;0.70;;;;;;;;;;5085706;27;20535;-32
2022/07/11 10:05:10;;;;;;;1.35;1.05;;;;;;;;;;5084035;28;20028;-33
2022/07/11 10:07:36;;;;;;;1.70;1.00;;;;;;;;;;5082406;28;20076;-33
2022/07/11 10:10:04;;;;;;;1.25;0.90;;;;;;;;;;5083368;28;20393;-33
2022/07/11 10:12:31;;;;;;;;;;;;;;;;;;5082129;28;20028;-33
2022/07/11 10:14:59;;;;;;;0.85;0.85;;;;;;;;;;5083231;28;19958;-33
2022/07/11 10:17:28;;;;;;;0.87;0.87;;;;;;;;;;5082737;28;20097;-33
2022/07/11 10:19:58;;;;;;;0.88;0.80;;;;;;;;;;5082142;28;20138;-34
2022/07/11 10:22:27;;;;;;;0.60;0.60;;;;;;;;;;5087275;28;20051;-33
2022/07/11 10:24:53;;;;;;;0.60;0.60;;;;;;;;;;5086970;28;20020;-33
2022/07/11 10:27:30;;;;;;;0.82;0.70;;;;;;;;;;5087054;28;20074;-33
2022/07/11 10:29:56;;;;;;;0.50;0.50;;;;;;;;;;5087043;28;20129;-36
2022/07/11 10:32:22;;;;;;;0.80;0.80;;;;;;;;;;5089118;27;20040;-33
2022/07/11 10:35:10;;;;;;;1.10;0.70;;;;;;;;;;5087375;28;20040;-34
2022/07/11 10:37:47;;;;;;;0.85;0.85;;;;;;;;;;5089602;28;20492;-33
2022/07/11 10:40:13;;;;;;;1.17;0.77;;;;;;;;;;5086900;28;20041;-33
2022/07/11 10:42:40;;;;;;;0.80;0.80;;;;;;;;;;5089295;28;20036;-33
2022/07/11 10:45:11;;;;;;;0.80;0.80;;;;;;;;;;5087515;28;20103;-33
2022/07/11 10:47:46;;;;;;;0.90;0.80;;;;;;;;;;5089313;28;20020;-33
2022/07/11 10:50:30;;;;;;;0.77;0.77;;;;;;;;;;5086060;28;20050;-32
2022/07/11 10:52:57;;;;;;;0.57;0.57;;;;;;;;;;5088885;28;20032;-33
2022/07/11 10:55:29;;;;;;;0.65;0.65;;;;;;;;;;5085920;28;20077;-33
2022/07/11 10:58:05;;;;;;;0.70;0.70;;;;;;;;;;5087775;28;20370;-32
2022/07/11 11:00:32;;;;;;;0.80;0.80;;;;;;;;;;5087433;27;20028;-35
2022/07/11 11:03:05;;;;;;;1.67;0.65;;;;;;;;;;5088451;28;20736;-32
2022/07/11 11:05:52;;;;;;;0.70;0.70;;;;;;;;;;5090058;28;20032;-33
2022/07/11 11:08:34;;;;;;;0.95;0.85;;;;;;;;;;5087331;28;20440;-33
2022/07/11 11:11:00;;;;;;;0.60;0.60;;;;;;;;;;5082903;28;20137;-33
2022/07/11 11:13:27;;;;;;;0.80;0.80;;;;;;;;;;5083426;28;20492;-34
2022/07/11 11:15:54;;;;;;;0.90;0.77;;;;;;;;;;5088446;28;20036;-33
2022/07/11 11:18:25;;;;;;;0.82;0.82;;;;;;;;;;5089352;28;20046;-33
2022/07/11 11:21:00;;;;;;;0.85;0.70;;;;;;;;;;5089040;28;20938;-32
2022/07/11 11:23:31;;;;;;;0.60;0.60;;;;;;;;;;5086585;28;20025;-33
2022/07/11 11:26:06;;;;;;;0.90;0.63;;;;;;;;;;5083076;28;20020;-34
2022/07/11 11:28:32;;;;;;;0.50;0.50;;;;;;;;;;5086071;28;20032;-32
2022/07/11 11:30:59;;;;;;;0.70;0.70;;;;;;;;;;5085547;28;20043;-33
2022/07/11 11:33:26;;;;;;;0.57;0.57;;;;;;;;;;5088863;28;20032;-33
2022/07/11 11:36:05;;;;;;;0.60;0.60;;;;;;;;;;5086272;28;20423;-34
2022/07/11 11:38:35;;;;;;;0.60;0.60;;;;;;;;;;5083805;28;20637;-32
2022/07/11 11:41:01;;;;;;;0.60;0.50;;;;;;;;;;5088457;28;20166;-33
2022/07/11 11:43:27;;;;;;;0.52;0.52;;;;;;;;;;5079550;28;20569;-33
2022/07/11 11:45:54;;;;;;;0.68;0.68;;;;;;;;;;5089281;28;20444;-32
2022/07/11 11:48:33;;;;;;;0.93;0.73;;;;;;;;;;5088131;28;20024;-34
2022/07/11 11:51:08;;;;;;;1.17;0.80;;;;;;;;;;5086623;28;20036;-33
2022/07/11 11:53:36;;;;;;;0.95;0.80;;;;;;;;;;5086285;28;20032;-33
2022/07/11 11:56:11;;;;;;;1.15;0.73;;;;;;;;;;5086482;28;20051;-34
2022/07/11 11:58:37;;;;;;;0.70;0.70;;;;;;;;;;5082830;28;20067;-32
2022/07/11 12:01:05;;;;;;;1.17;0.77;;;;;;;;;;5088017;27;20102;-32
2022/07/11 12:03:46;;;;;;;0.95;0.95;;;;;;;;;;5082652;28;20171;-34
2022/07/11 12:06:12;;;;;;;0.77;0.77;;;;;;;;;;5086648;28;20070;-33
2022/07/11 12:08:38;;;;;;;0.82;0.82;;;;;;;;;;5090117;28;20047;-33
2022/07/11 12:11:04;;;;;;;0.75;0.75;;;;;;;;;;5081013;28;20042;-33
2022/07/11 12:13:31;;;;;;;0.90;0.70;;;;;;;;;;5088621;28;21994;-34
2022/07/11 12:18:41;;;;;;;0.88;0.88;;;;;;;;;;5083319;28;20039;-34
2022/07/11 12:21:14;;;;;;;1.58;1.20;;;;;;;;;;5089371;28;20036;-34
2022/07/11 12:23:40;;;;;;;0.90;0.90;;;;;;;;;;5090128;28;20059;-33
2022/07/11 12:26:06;;;;;;;2.55;0.90;;;;;;;;;;5089747;28;20021;-33
2022/07/11 12:28:33;;;;;;;0.73;0.73;;;;;;;;;;5080460;28;20048;-33
2022/07/11 12:30:59;;;;;;;1.13;1.02;;;;;;;;;;5083000;28;20035;-33
2022/07/11 12:33:25;;;;;;;0.80;0.80;;;;;;;;;;5087148;28;20020;-33
2022/07/11 12:36:01;;;;;;;2.25;0.85;;;;;;;;;;5083210;28;20031;-33
2022/07/11 12:38:48;;;;;;;1.52;0.88;;;;;;;;;;5077925;28;20109;-33
2022/07/11 12:41:14;;;;;;;0.80;0.80;;;;;;;;;;5078883;28;20024;-35
2022/07/11 12:46:39;;;;;;;4.47;1.05;;;;;;;;;;5082066;28;20046;-33
2022/07/11 12:49:06;;;;;;;0.90;0.90;;;;;;;;;;5089581;28;20110;-34
2022/07/11 12:51:39;;;;;;;1.65;0.80;;;;;;;;;;5079338;28;20508;-35
2022/07/11 12:54:08;;;;;;;0.75;0.75;;;;;;;;;;5081178;28;20131;-33
2022/07/11 12:56:34;;;;;;;0.80;0.80;;;;;;;;;;5077496;28;20431;-33
2022/07/11 12:59:01;;;;;;;1.00;0.80;;;;;;;;;;5079219;28;20028;-32
2022/07/11 13:01:28;;;;;;;0.85;0.70;;;;;;;;;;5085472;28;20067;-33
2022/07/11 13:03:54;;;;;;;0.93;0.80;;;;;;;;;;5080639;28;20048;-34
2022/07/11 13:08:42;;;;;;;1.23;0.90;;;;;;;;;;5081772;28;20082;-35
2022/07/11 13:09:08;;;;;;;0.63;0.63;;;;;;;;;;5083699;28;20506;-34
2022/07/11 13:11:34;;;;;;;3.45;0.80;;;;;;;;;;5085071;28;20096;-33
2022/07/11 13:14:00;;;;;;;0.60;0.60;;;;;;;;;;5088503;28;20032;-34
2022/07/11 13:16:26;;;;;;;0.88;0.80;;;;;;;;;;5087601;28;20723;-35
2022/07/11 13:18:52;;;;;;;0.80;0.80;;;;;;;;;;5078567;28;20016;-32
2022/07/11 13:21:18;;;;;;;1.42;0.90;;;;;;;;;;5087766;28;20396;-34
2022/07/11 13:23:45;;;;;;;1.23;0.80;;;;;;;;;;5080778;28;20534;-33
2022/07/11 13:26:11;;;;;;;0.70;0.70;;;;;;;;;;5089038;28;20838;-36
2022/07/11 13:28:38;;;;;;;1.27;0.70;;;;;;;;;;5078950;28;20020;-33
2022/07/11 13:31:08;;;;;;;0.70;0.70;;;;;;;;;;5083724;28;20502;-34
2022/07/11 13:33:34;;;;;;;1.30;0.80;;;;;;;;;;5082976;28;20028;-34
2022/07/11 13:36:00;;;;;;;1.42;1.08;;;;;;;;;;5088264;28;20059;-34
2022/07/11 13:38:26;;;;;;;0.98;0.88;;;;;;;;;;5080759;28;20020;-34
2022/07/11 13:40:52;;;;;;;0.60;0.60;;;;;;;;;;5078791;28;20098;-34
2022/07/11 13:43:19;;;;;;;0.70;0.70;;;;;;;;;;5082109;28;20039;-33
2022/07/11 13:45:47;;;;;;;2.47;0.80;;;;;;;;;;5087973;28;20434;-34
2022/07/11 13:48:13;;;;;;;;;;;;;;;;;;5084810;28;20093;-34
2022/07/11 13:50:39;;;;;;;1.15;0.73;;;;;;;;;;5079882;28;19916;-34
2022/07/11 13:53:06;;;;;;;0.70;0.70;;;;;;;;;;5077087;28;20111;-34
2022/07/11 13:55:32;;;;;;;0.80;0.80;;;;;;;;;;5077755;28;20032;-33
2022/07/11 13:57:59;;;;;;;0.90;0.90;;;;;;;;;;5086602;28;20476;-32
2022/07/11 14:00:25;;;;;;;1.38;0.70;;;;;;;;;;5083767;28;20059;-33
2022/07/11 14:02:52;;;;;;;0.70;0.70;;;;;;;;;;5085155;28;20055;-33
2022/07/11 14:05:19;;;;;;;1.23;0.88;;;;;;;;;;5081169;28;20117;-33
2022/07/11 14:07:45;;;;;;;0.60;0.60;;;;;;;;;;5087501;28;20032;-35
2022/07/11 14:10:11;;;;;;;0.77;0.77;;;;;;;;;;5081103;28;20024;-34
2022/07/11 14:12:38;;;;;;;1.00;0.75;;;;;;;;;;5074311;28;20028;-35
2022/07/11 14:15:04;;;;;;;2.15;0.68;;;;;;;;;;5083421;28;20039;-33
2022/07/11 14:17:30;;;;;;;1.05;0.80;;;;;;;;;;5082112;28;20031;-33
2022/07/11 14:19:56;;;;;;;0.80;0.80;;;;;;;;;;5079601;28;20036;-33
2022/07/11 14:22:23;;;;;;;0.77;0.55;;;;;;;;;;5086952;28;20059;-33
2022/07/11 14:24:49;;;;;;;0.98;0.90;;;;;;;;;;5074857;28;20393;-36
2022/07/11 14:27:15;;;;;;;0.73;0.73;;;;;;;;;;5086815;28;20111;-35
2022/07/11 14:29:43;;;;;;;1.65;0.75;;;;;;;;;;5087855;28;20040;-34
2022/07/11 14:32:09;;;;;;;0.70;0.70;;;;;;;;;;5073913;28;20029;-33
2022/07/11 14:34:35;;;;;;;1.52;0.93;;;;;;;;;;5082181;28;20063;-35
2022/07/11 14:37:01;;;;;;;0.80;0.70;;;;;;;;;;5086899;28;20118;-34
2022/07/11 14:39:27;;;;;;;0.93;0.93;;;;;;;;;;5087550;28;20045;-34
2022/07/11 14:41:53;;;;;;;0.75;0.75;;;;;;;;;;5086541;28;20757;-33
2022/07/11 14:44:19;;;;;;;0.88;0.88;;;;;;;;;;5081470;28;20028;-33
2022/07/11 14:46:45;;;;;;;1.05;0.93;;;;;;;;;;5079207;28;20181;-33
2022/07/11 14:49:11;;;;;;;0.73;0.73;;;;;;;;;;5082340;28;20093;-33
2022/07/11 14:51:37;;;;;;;0.80;0.80;;;;;;;;;;5086881;28;20024;-33
2022/07/11 14:54:03;;;;;;;0.90;0.90;;;;;;;;;;5079642;28;20488;-33
2022/07/11 14:56:29;;;;;;;1.00;1.00;;;;;;;;;;5082406;28;20032;-33